createdAt,value
2019-03-21T00:01:57.063Z,52.27
2019-03-21T00:04:26.481Z,51.07
2019-03-21T00:06:55.925Z,45.73
2019-03-21T00:09:25.401Z,39.57
2019-03-21T00:12:11.497Z,32.90
2019-03-21T00:14:57.734Z,35.37
2019-03-21T00:17:40.770Z,35.17
2019-03-21T00:20:14.164Z,31.67
2019-03-21T00:22:43.661Z,33.07
2019-03-21T00:25:23.357Z,35.60
2019-03-21T00:27:52.832Z,31.90
2019-03-21T00:30:27.323Z,33.00
2019-03-21T00:32:57.674Z,35.60
2019-03-21T00:35:27.102Z,36.63
2019-03-21T00:37:56.553Z,35.93
2019-03-21T00:40:35.903Z,32.40
2019-03-21T00:43:09.362Z,34.23
2019-03-21T00:45:38.790Z,32.40
2019-03-21T00:48:17.941Z,42.67
2019-03-21T00:50:47.356Z,27.67
2019-03-21T00:53:16.756Z,29.97
2019-03-21T00:55:59.198Z,29.63
2019-03-21T00:58:28.694Z,38.00
2019-03-21T01:01:02.398Z,37.03
2019-03-21T01:03:31.831Z,42.73
2019-03-21T01:06:01.262Z,44.97
2019-03-21T01:08:30.692Z,38.50
2019-03-21T01:11:00.186Z,42.83
2019-03-21T01:13:39.524Z,44.23
2019-03-21T01:16:09.016Z,44.00
2019-03-21T01:18:43.380Z,25.80
2019-03-21T01:21:12.842Z,21.77
2019-03-21T01:23:42.645Z,23.53
2019-03-21T01:26:31.413Z,25.60
2019-03-21T01:29:01.215Z,30.30
2019-03-21T01:31:30.615Z,32.17
2019-03-21T01:34:00.557Z,27.70
2019-03-21T01:36:30.050Z,32.10
2019-03-21T01:38:59.935Z,30.80
2019-03-21T01:41:29.346Z,32.50
2019-03-21T01:43:58.758Z,36.73
2019-03-21T01:46:28.204Z,35.50
2019-03-21T01:48:57.914Z,40.60
2019-03-21T01:51:27.317Z,35.67
2019-03-21T01:53:56.916Z,28.73
2019-03-21T01:56:28.936Z,23.87
2019-03-21T01:58:58.371Z,28.47
2019-03-21T02:01:28.109Z,23.63
2019-03-21T02:03:57.527Z,22.03
2019-03-21T02:06:26.938Z,25.17
2019-03-21T02:08:56.435Z,24.40
2019-03-21T02:11:25.878Z,18.07
2019-03-21T02:13:55.358Z,23.83
2019-03-21T02:16:24.763Z,14.50
2019-03-21T02:18:54.198Z,22.60
2019-03-21T02:21:23.601Z,24.93
2019-03-21T02:23:53.384Z,32.70
2019-03-21T02:26:22.799Z,28.30
2019-03-21T02:28:52.213Z,28.40
2019-03-21T02:31:21.663Z,30.60
2019-03-21T02:33:51.057Z,33.67
2019-03-21T02:36:20.491Z,22.43
2019-03-21T02:38:49.915Z,24.30
2019-03-21T02:41:19.349Z,22.13
2019-03-21T02:43:48.766Z,26.07
2019-03-21T02:46:18.206Z,24.60
2019-03-21T02:48:47.683Z,23.97
2019-03-21T02:51:17.110Z,23.57
2019-03-21T02:53:46.643Z,30.20
2019-03-21T02:56:23.550Z,26.27
2019-03-21T02:58:52.995Z,29.43
2019-03-21T03:01:22.413Z,32.83
2019-03-21T03:03:51.828Z,30.10
2019-03-21T03:06:21.264Z,32.30
2019-03-21T03:08:50.749Z,38.03
2019-03-21T03:11:23.617Z,36.43
2019-03-21T03:13:53.157Z,35.10
2019-03-21T03:16:24.177Z,37.53
2019-03-21T03:18:53.631Z,36.57
2019-03-21T03:21:23.281Z,33.37
2019-03-21T03:23:52.719Z,40.00
2019-03-21T03:26:22.126Z,40.20
2019-03-21T03:28:51.542Z,33.53
2019-03-21T03:31:21.259Z,33.03
2019-03-21T03:33:50.668Z,35.00
2019-03-21T03:36:20.119Z,32.73
2019-03-21T03:38:49.526Z,25.53
2019-03-21T03:41:21.332Z,17.17
2019-03-21T03:43:50.843Z,17.00
2019-03-21T03:46:20.267Z,21.27
2019-03-21T03:48:49.689Z,28.87
2019-03-21T03:51:19.181Z,24.50
2019-03-21T03:53:48.632Z,24.57
2019-03-21T03:56:18.064Z,29.83
2019-03-21T03:58:54.762Z,30.47
2019-03-21T04:01:24.247Z,31.07
2019-03-21T04:03:53.751Z,27.87
2019-03-21T04:06:23.205Z,38.27
2019-03-21T04:08:52.692Z,35.20
2019-03-21T04:11:22.181Z,31.63
2019-03-21T04:13:51.611Z,31.10
2019-03-21T04:16:21.095Z,30.43
2019-03-21T04:18:50.537Z,55.13
2019-03-21T04:21:20.002Z,21.87
2019-03-21T04:23:49.417Z,28.30
2019-03-21T04:26:24.111Z,27.43
2019-03-21T04:28:53.614Z,31.30
2019-03-21T04:31:23.100Z,39.67
2019-03-21T04:33:57.245Z,35.07
2019-03-21T04:36:26.688Z,31.87
2019-03-21T04:38:56.129Z,31.33
2019-03-21T04:41:25.624Z,21.50
2019-03-21T04:43:55.128Z,22.97
2019-03-21T04:46:24.612Z,20.20
2019-03-21T04:48:54.024Z,19.97
2019-03-21T04:51:23.447Z,28.07
2019-03-21T04:53:53.626Z,26.97
2019-03-21T04:56:23.227Z,29.13
2019-03-21T04:58:52.635Z,32.27
2019-03-21T05:01:22.093Z,29.70
2019-03-21T05:03:51.507Z,35.00
2019-03-21T05:06:21.285Z,33.10
2019-03-21T05:08:50.716Z,33.63
2019-03-21T05:11:20.122Z,39.87
2019-03-21T05:13:49.565Z,49.43
2019-03-21T05:16:18.964Z,52.60
2019-03-21T05:19:00.024Z,50.90
2019-03-21T05:21:29.461Z,48.70
2019-03-21T05:23:58.888Z,54.17
2019-03-21T05:26:28.318Z,50.93
2019-03-21T05:28:57.721Z,52.33
2019-03-21T05:31:34.516Z,44.70
2019-03-21T05:34:04.395Z,45.67
2019-03-21T05:36:33.803Z,40.03
2019-03-21T05:39:04.674Z,42.53
2019-03-21T05:41:34.101Z,37.13
2019-03-21T05:44:19.444Z,44.03
2019-03-21T05:46:48.857Z,48.57
2019-03-21T05:49:18.568Z,57.13
2019-03-21T05:51:48.384Z,55.37
2019-03-21T05:54:17.820Z,57.70
2019-03-21T05:56:47.237Z,54.10
2019-03-21T05:59:16.649Z,69.07
2019-03-21T06:01:46.385Z,67.33
2019-03-21T06:04:15.827Z,40.97
2019-03-21T06:07:06.666Z,68.33
2019-03-21T06:09:36.099Z,66.67
2019-03-21T06:12:07.629Z,117.37
2019-03-21T06:14:42.062Z,118.17
2019-03-21T06:17:11.495Z,121.47
2019-03-21T06:20:06.222Z,100.97
2019-03-21T06:22:54.967Z,89.87
2019-03-21T06:25:43.215Z,45.77
2019-03-21T06:28:12.639Z,42.97
2019-03-21T06:30:42.129Z,56.17
2019-03-21T06:33:11.559Z,37.67
2019-03-21T06:35:40.993Z,41.60
2019-03-21T06:38:10.414Z,55.03
2019-03-21T06:40:39.840Z,54.13
2019-03-21T06:43:09.321Z,50.77
2019-03-21T06:45:47.499Z,55.07
2019-03-21T06:48:10.291Z,49.30
2019-03-21T06:50:39.698Z,53.00
2019-03-21T06:53:09.495Z,52.77
2019-03-21T06:55:38.913Z,41.03
2019-03-21T06:58:08.371Z,41.00
2019-03-21T07:00:37.781Z,48.77
2019-03-21T07:03:07.201Z,51.70
2019-03-21T07:05:36.638Z,57.13
2019-03-21T07:08:06.512Z,41.90
2019-03-21T07:10:35.944Z,58.07
2019-03-21T07:13:05.494Z,60.63
2019-03-21T07:15:34.912Z,54.43
2019-03-21T07:18:04.415Z,49.37
2019-03-21T07:20:33.814Z,51.93
2019-03-21T07:23:03.245Z,53.57
2019-03-21T07:25:32.646Z,54.00
2019-03-21T07:28:02.113Z,56.00
2019-03-21T07:30:31.521Z,53.30
2019-03-21T07:33:00.945Z,53.70
2019-03-21T07:35:30.382Z,55.10
2019-03-21T07:37:59.788Z,54.83
2019-03-21T07:40:29.216Z,56.20
2019-03-21T07:42:58.625Z,56.43
2019-03-21T07:45:28.029Z,60.10
2019-03-21T07:47:57.456Z,58.77
2019-03-21T07:50:26.866Z,56.80
2019-03-21T07:52:56.297Z,58.40
2019-03-21T07:55:25.800Z,64.63
2019-03-21T07:57:55.276Z,53.30
2019-03-21T08:00:24.709Z,52.37
2019-03-21T08:02:54.225Z,56.43
2019-03-21T08:05:23.713Z,42.30
2019-03-21T08:07:53.129Z,54.27
2019-03-21T08:10:22.582Z,55.57
2019-03-21T08:12:52.009Z,49.00
2019-03-21T08:15:21.479Z,55.07
2019-03-21T08:17:50.912Z,45.67
2019-03-21T08:20:20.468Z,45.17
2019-03-21T08:22:49.978Z,41.13
2019-03-21T08:25:19.409Z,35.43
2019-03-21T08:27:48.841Z,33.67
2019-03-21T08:30:36.551Z,37.43
2019-03-21T08:33:06.354Z,33.07
2019-03-21T08:35:35.844Z,32.90
2019-03-21T08:38:05.398Z,27.47
2019-03-21T08:40:34.917Z,28.07
2019-03-21T08:43:04.402Z,30.13
2019-03-21T08:45:33.819Z,24.23
2019-03-21T08:48:03.257Z,28.07
2019-03-21T08:50:32.766Z,25.77
2019-03-21T08:53:02.238Z,35.70
2019-03-21T08:55:31.668Z,30.23
2019-03-21T08:58:01.139Z,31.97
2019-03-21T09:00:34.530Z,31.67
2019-03-21T09:03:01.777Z,33.00
2019-03-21T09:05:31.212Z,31.67
2019-03-21T09:08:00.710Z,33.60
2019-03-21T09:10:30.153Z,30.47
2019-03-21T09:12:59.586Z,29.63
2019-03-21T09:15:31.429Z,35.50
2019-03-21T09:18:00.873Z,29.30
2019-03-21T09:20:30.291Z,27.33
2019-03-21T09:22:59.789Z,28.53
2019-03-21T09:25:29.256Z,27.23
2019-03-21T09:28:02.811Z,23.63
2019-03-21T09:30:29.917Z,26.13
2019-03-21T09:32:59.383Z,25.63
2019-03-21T09:35:28.826Z,25.30
2019-03-21T09:37:58.512Z,26.13
2019-03-21T09:40:28.322Z,24.10
2019-03-21T09:42:57.764Z,24.63
2019-03-21T09:45:27.191Z,24.63
2019-03-21T09:47:56.645Z,27.57
2019-03-21T09:50:30.783Z,26.17
2019-03-21T09:53:00.261Z,27.77
2019-03-21T09:55:30.043Z,25.17
2019-03-21T09:57:59.483Z,28.37
2019-03-21T10:00:38.719Z,25.10
2019-03-21T10:03:08.209Z,27.67
2019-03-21T10:05:37.625Z,23.60
2019-03-21T10:08:07.266Z,25.73
2019-03-21T10:10:36.705Z,24.77
2019-03-21T10:13:06.798Z,25.10
2019-03-21T10:15:36.193Z,26.33
2019-03-21T10:18:05.876Z,29.63
2019-03-21T10:20:35.705Z,26.93
2019-03-21T10:23:05.274Z,24.57
2019-03-21T10:25:34.857Z,27.67
2019-03-21T10:28:04.725Z,26.23
2019-03-21T10:30:37.357Z,27.00
2019-03-21T10:33:09.584Z,28.87
2019-03-21T10:35:39.080Z,28.47
2019-03-21T10:38:08.860Z,29.43
2019-03-21T10:40:38.366Z,26.23
2019-03-21T10:43:10.381Z,29.63
2019-03-21T10:45:39.457Z,24.60
2019-03-21T10:48:08.964Z,26.90
2019-03-21T10:50:40.709Z,29.57
2019-03-21T10:53:10.769Z,27.17
2019-03-21T10:55:40.371Z,26.57
2019-03-21T10:58:10.022Z,24.93
2019-03-21T11:00:39.674Z,30.93
2019-03-21T11:03:09.703Z,29.67
2019-03-21T11:05:39.358Z,29.40
2019-03-21T11:08:08.884Z,31.20
2019-03-21T11:10:38.306Z,27.47
2019-03-21T11:13:07.998Z,30.70
2019-03-21T11:15:37.667Z,28.70
2019-03-21T11:18:07.223Z,26.03
2019-03-21T11:20:38.969Z,25.23
2019-03-21T11:23:09.193Z,27.20
2019-03-21T11:25:38.863Z,28.77
2019-03-21T11:28:09.819Z,29.77
2019-03-21T11:30:41.738Z,28.80
2019-03-21T11:33:11.418Z,26.00
2019-03-21T11:35:40.914Z,27.33
2019-03-21T11:38:10.588Z,25.77
2019-03-21T11:40:41.909Z,25.30
2019-03-21T11:43:12.157Z,27.03
2019-03-21T11:45:41.670Z,25.40
2019-03-21T11:48:11.421Z,23.87
2019-03-21T11:50:40.938Z,26.43
2019-03-21T11:53:10.345Z,22.20
2019-03-21T11:55:39.807Z,23.47
2019-03-21T11:58:09.269Z,23.80
2019-03-21T12:00:43.775Z,23.10
2019-03-21T12:03:10.362Z,26.07
2019-03-21T12:05:40.156Z,23.93
2019-03-21T12:08:09.622Z,24.20
2019-03-21T12:10:39.042Z,22.23
2019-03-21T12:13:08.534Z,27.73
2019-03-21T12:15:38.055Z,25.57
2019-03-21T12:18:07.471Z,25.27
2019-03-21T12:20:37.087Z,24.20
2019-03-21T12:23:07.187Z,21.40
2019-03-21T12:25:36.620Z,22.40
2019-03-21T12:28:06.189Z,22.23
2019-03-21T12:30:38.902Z,21.63
2019-03-21T12:33:08.740Z,22.93
2019-03-21T12:35:38.334Z,21.10
2019-03-21T12:38:09.377Z,22.87
2019-03-21T12:40:38.883Z,20.27
2019-03-21T12:43:08.502Z,22.23
2019-03-21T12:45:38.422Z,22.93
2019-03-21T12:48:07.924Z,20.53
2019-03-21T12:50:37.441Z,24.60
2019-03-21T12:53:06.928Z,22.00
2019-03-21T12:55:36.340Z,22.47
2019-03-21T12:58:05.912Z,24.23
2019-03-21T13:00:40.911Z,22.43
2019-03-21T13:03:10.775Z,28.97
2019-03-21T13:05:40.720Z,19.60
2019-03-21T13:08:10.246Z,24.77
2019-03-21T13:10:39.762Z,21.27
2019-03-21T13:13:09.324Z,21.40
